Nearby METAR Reports

 

NZAA - Auckland Intl Ar, New Zealand
Distance from station: SSE 87km
Updated: 19/10/2017 20:00
Few Clouds
Few Clouds
 Wind from SSW
Wind: SSW 22 km/h
Temperature: 14°C
Dew Point: 10°C
Humidity: 77%
Barometer: 1024 hPa
Clouds: Few Clouds
Visibility: 10 km
Cloud details: Few Clouds 579 m
2017/10/19 07:00 NZAA 190700Z AUTO 21012KT 9999 FEW019/// 14/10 Q1024 NOSIG
NZWN - Wellington Intl, New Zealand
Distance from station: S 561km
Updated: 19/10/2017 20:00
Clear
Clear
 Wind from N
Wind: N 24 km/h
Temperature: 12°C
Dew Point: 9°C
Humidity: 82%
Barometer: 1023 hPa
Clouds: Clear
Visibility: 10 km
2017/10/19 07:00 NZWN 190700Z AUTO 36013KT 9999 NCD 12/09 Q1023 NOSIG
 
NZCH - Christchurch Int, New Zealand
Distance from station: S 817km
Updated: 19/10/2017 20:00
Clear
Clear
 Wind from ENE
Wind: ENE 13 km/h
Temperature: 14°C
Dew Point: 8°C
Humidity: 67%
Barometer: 1022 hPa
Clouds: Clear
Visibility: 10 km
2017/10/19 07:00 NZCH 190700Z AUTO 07007KT 9999 NCD 14/08 Q1022 NOSIG
YSNF - Norfolk Island A, Australia
Distance from station: NW 1015km
Updated: 19/10/2017 20:00
Overcast
Overcast
 Wind from ESE
Wind: ESE 19 km/h
Temperature: 17°C
Dew Point: 11°C
Humidity: 68%
Barometer: 1023 hPa
Clouds: Overcast
Visibility: 10 km
Cloud details: Partly cloudy 823 m
Overcast 1250 m
2017/10/19 07:00 YSNF 190700Z AUTO 12010KT 9999 // SCT027 OVC041 17/11 Q1023